createdAt,value
2022-09-09T00:02:22.357Z,98405.47
2022-09-09T00:05:10.642Z,98407.56
2022-09-09T00:08:05.137Z,98410.31
2022-09-09T00:10:40.538Z,98407.09
2022-09-09T00:13:17.149Z,98407.09
2022-09-09T00:15:50.315Z,98413.97
2022-09-09T00:18:43.064Z,98412.84
2022-09-09T00:21:16.618Z,98414.34
2022-09-09T00:23:52.607Z,98412.66
2022-09-09T00:26:45.445Z,98415.59
2022-09-09T00:29:18.545Z,98416.78
2022-09-09T00:31:45.320Z,98419.25
2022-09-09T00:34:20.096Z,98416.88
2022-09-09T00:36:47.089Z,98415.38
2022-09-09T00:39:23.164Z,98412.19
2022-09-09T00:42:11.074Z,98421.59
2022-09-09T00:44:38.861Z,98420.84
2022-09-09T00:47:18.429Z,98420.09
2022-09-09T00:50:01.148Z,98417.56
2022-09-09T00:52:40.245Z,98416.56
2022-09-09T00:55:16.418Z,98418.00
2022-09-09T00:57:43.449Z,98426.75
2022-09-09T01:00:30.265Z,98437.03
2022-09-09T01:03:20.056Z,98432.41
2022-09-09T01:05:55.904Z,98437.19
2022-09-09T01:08:56.697Z,98438.22
2022-09-09T01:11:26.832Z,98441.22
2022-09-09T01:14:15.528Z,98437.50
2022-09-09T01:16:42.426Z,98443.53
2022-09-09T01:19:10.132Z,98448.44
2022-09-09T01:21:45.686Z,98449.66
2022-09-09T01:24:56.456Z,98453.78
2022-09-09T01:27:23.265Z,98456.34
2022-09-09T01:29:50.276Z,98460.31
2022-09-09T01:32:43.383Z,98462.84
2022-09-09T01:35:31.339Z,98465.78
2022-09-09T01:37:58.396Z,98466.97
2022-09-09T01:40:25.990Z,98468.22
2022-09-09T01:42:53.202Z,98465.66
2022-09-09T01:45:20.159Z,98472.50
2022-09-09T01:47:47.198Z,98475.88
2022-09-09T01:50:14.462Z,98471.00
2022-09-09T01:52:41.290Z,98472.56
2022-09-09T01:55:08.830Z,98468.97
2022-09-09T01:57:45.821Z,98478.19
2022-09-09T02:00:13.783Z,98472.25
2022-09-09T02:02:50.308Z,98476.03
2022-09-09T02:05:36.073Z,98479.81
2022-09-09T02:08:22.297Z,98482.38
2022-09-09T02:10:51.838Z,98480.66
2022-09-09T02:13:19.798Z,98485.28
2022-09-09T02:16:08.325Z,98487.06
2022-09-09T02:18:41.334Z,98497.31
2022-09-09T02:21:08.211Z,98491.47
2022-09-09T02:23:35.369Z,98496.31
2022-09-09T02:26:02.437Z,98486.56
2022-09-09T02:28:30.129Z,98497.34
2022-09-09T02:30:57.174Z,98495.28
2022-09-09T02:33:26.216Z,98486.44
2022-09-09T02:35:53.281Z,98491.22
2022-09-09T02:38:20.169Z,98495.28
2022-09-09T02:40:47.221Z,98487.44
2022-09-09T02:43:17.396Z,98490.34
2022-09-09T02:45:52.965Z,98490.19
2022-09-09T02:48:31.772Z,98496.16
2022-09-09T02:51:01.496Z,98497.41
2022-09-09T02:54:05.497Z,98500.16
2022-09-09T02:56:34.760Z,98501.00
2022-09-09T02:59:05.024Z,98495.53
2022-09-09T03:01:32.865Z,98505.63
2022-09-09T03:03:59.709Z,98503.91
2022-09-09T03:06:28.327Z,98511.75
2022-09-09T03:08:55.200Z,98508.00
2022-09-09T03:11:21.980Z,98506.28
2022-09-09T03:13:49.909Z,98510.91
2022-09-09T03:16:16.923Z,98510.56
2022-09-09T03:18:44.380Z,98511.41
2022-09-09T03:21:12.172Z,98523.72
2022-09-09T03:23:38.992Z,98527.47
2022-09-09T03:26:05.820Z,98523.41
2022-09-09T03:28:32.937Z,98517.25
2022-09-09T03:31:03.844Z,98519.47
2022-09-09T03:33:31.000Z,98513.19
2022-09-09T03:35:58.200Z,98514.03
2022-09-09T03:38:25.425Z,98524.44
2022-09-09T03:40:56.543Z,98518.16
2022-09-09T03:43:26.748Z,98529.41
2022-09-09T03:45:53.994Z,98526.00
2022-09-09T03:48:20.832Z,98533.88
2022-09-09T03:50:48.546Z,98531.97
2022-09-09T03:53:15.952Z,98533.16
2022-09-09T03:55:46.769Z,98532.66
2022-09-09T03:58:17.198Z,98532.84
2022-09-09T04:00:46.110Z,98541.19
2022-09-09T04:03:13.194Z,98543.06
2022-09-09T04:05:41.854Z,98542.25
2022-09-09T04:08:09.344Z,98540.53
2022-09-09T04:10:39.012Z,98541.72
2022-09-09T04:13:06.373Z,98537.28
2022-09-09T04:15:33.429Z,98546.16
2022-09-09T04:18:00.250Z,98546.38
2022-09-09T04:20:27.289Z,98550.09
2022-09-09T04:22:54.097Z,98541.06
2022-09-09T04:25:20.930Z,98543.97
2022-09-09T04:27:48.585Z,98531.69
2022-09-09T04:30:15.511Z,98536.97
2022-09-09T04:32:42.353Z,98530.84
2022-09-09T04:35:09.426Z,98529.28
2022-09-09T04:37:36.201Z,98536.47
2022-09-09T04:40:03.715Z,98536.97
2022-09-09T04:42:30.930Z,98536.28
2022-09-09T04:44:57.861Z,98533.56
2022-09-09T04:47:24.717Z,98532.53
2022-09-09T04:49:52.601Z,98528.25
2022-09-09T04:52:19.458Z,98531.53
2022-09-09T04:54:46.758Z,98538.69
2022-09-09T04:57:18.475Z,98543.78
2022-09-09T04:59:45.684Z,98549.41
2022-09-09T05:02:12.921Z,98544.94
2022-09-09T05:04:40.648Z,98553.13
2022-09-09T05:07:07.888Z,98554.34
2022-09-09T05:09:34.680Z,98556.53
2022-09-09T05:12:01.905Z,98557.25
2022-09-09T05:14:28.764Z,98563.69
2022-09-09T05:16:56.945Z,98563.41
2022-09-09T05:19:24.067Z,98562.38
2022-09-09T05:21:51.198Z,98569.34
2022-09-09T05:24:18.353Z,98568.50
2022-09-09T05:26:45.504Z,98574.31
2022-09-09T05:29:12.316Z,98576.16
2022-09-09T05:31:40.124Z,98571.22
2022-09-09T05:34:07.260Z,98570.16
2022-09-09T05:36:34.089Z,98570.88
2022-09-09T05:39:02.352Z,98576.16
2022-09-09T05:41:30.432Z,98566.97
2022-09-09T05:43:57.406Z,98575.81
2022-09-09T05:46:25.094Z,98574.97
2022-09-09T05:48:52.599Z,98561.19
2022-09-09T05:51:25.155Z,98571.56
2022-09-09T05:53:52.368Z,98569.53
2022-09-09T05:56:21.058Z,98570.91
2022-09-09T05:58:48.055Z,98573.44
2022-09-09T06:01:16.625Z,98573.97
2022-09-09T06:03:44.762Z,98574.47
2022-09-09T06:06:13.698Z,98571.56
2022-09-09T06:08:41.719Z,98565.56
2022-09-09T06:11:13.111Z,98566.94
2022-09-09T06:13:40.724Z,98563.72
2022-09-09T06:16:17.729Z,98563.34
2022-09-09T06:18:45.061Z,98569.31
2022-09-09T06:21:17.393Z,98567.75
2022-09-09T06:23:45.537Z,98567.25
2022-09-09T06:26:15.152Z,98568.59
2022-09-09T06:28:43.140Z,98568.75
2022-09-09T06:31:11.447Z,98557.31
2022-09-09T06:33:42.387Z,98565.16
2022-09-09T06:36:13.680Z,98568.53
2022-09-09T06:38:40.759Z,98564.56
2022-09-09T06:41:12.243Z,98563.56
2022-09-09T06:43:39.278Z,98572.75
2022-09-09T06:46:17.119Z,98556.50
2022-09-09T06:48:45.435Z,98555.97
2022-09-09T06:51:15.141Z,98546.00
2022-09-09T06:53:43.665Z,98553.69
2022-09-09T06:56:28.963Z,98550.41
2022-09-09T06:58:59.480Z,98552.06
2022-09-09T07:01:27.938Z,98554.25
2022-09-09T07:03:56.089Z,98549.94
2022-09-09T07:06:25.084Z,98554.69
2022-09-09T07:09:00.094Z,98557.53
2022-09-09T07:11:30.464Z,98564.16
2022-09-09T07:13:58.261Z,98564.53
2022-09-09T07:16:25.756Z,98563.59
2022-09-09T07:18:53.586Z,98564.75
2022-09-09T07:21:21.869Z,98574.09
2022-09-09T07:23:48.696Z,98576.13
2022-09-09T07:26:17.587Z,98562.56
2022-09-09T07:28:44.556Z,98574.81
2022-09-09T07:31:22.353Z,98579.56
2022-09-09T07:33:49.573Z,98574.19
2022-09-09T07:36:18.637Z,98566.47
2022-09-09T07:38:47.163Z,98559.03
2022-09-09T07:41:37.145Z,98570.06
2022-09-09T07:44:12.293Z,98573.09
2022-09-09T07:46:42.654Z,98573.72
2022-09-09T07:49:10.233Z,98581.00
2022-09-09T07:51:41.918Z,98582.41
2022-09-09T07:54:10.753Z,98578.28
2022-09-09T07:56:40.248Z,98576.47
2022-09-09T07:59:07.572Z,98572.09
2022-09-09T08:01:42.174Z,98577.28
2022-09-09T08:04:11.168Z,98577.00
2022-09-09T08:06:40.373Z,98577.28
2022-09-09T08:09:07.568Z,98578.22
2022-09-09T08:11:38.745Z,98583.31
2022-09-09T08:14:08.765Z,98588.91
2022-09-09T08:16:40.441Z,98588.59
2022-09-09T08:19:08.479Z,98585.75
2022-09-09T08:21:37.733Z,98591.13
2022-09-09T08:24:06.194Z,98584.00
2022-09-09T08:26:38.364Z,98596.94
2022-09-09T08:29:06.668Z,98589.81
2022-09-09T08:31:34.457Z,98597.28
2022-09-09T08:34:02.611Z,98597.53
2022-09-09T08:36:30.334Z,98596.78
2022-09-09T08:38:58.227Z,98607.34
2022-09-09T08:41:25.354Z,98599.38
2022-09-09T08:43:52.643Z,98603.25
2022-09-09T08:46:25.770Z,98598.03
2022-09-09T08:48:56.114Z,98608.81
2022-09-09T08:51:22.911Z,98600.00
2022-09-09T08:53:50.631Z,98600.91
2022-09-09T08:56:23.180Z,98592.47
2022-09-09T08:58:51.210Z,98588.06
2022-09-09T09:01:36.730Z,98588.06
2022-09-09T09:04:06.742Z,98584.53
2022-09-09T09:06:39.730Z,98590.28
2022-09-09T09:09:27.672Z,98584.38
2022-09-09T09:11:57.035Z,98583.78
2022-09-09T09:17:00.443Z,98570.53
2022-09-09T09:19:28.218Z,98575.66
2022-09-09T09:22:23.124Z,98571.03
2022-09-09T09:24:54.468Z,98579.28
2022-09-09T09:27:49.332Z,98583.31
2022-09-09T09:30:29.898Z,98581.44
2022-09-09T09:32:59.152Z,98583.38
2022-09-09T09:35:26.217Z,98580.88
2022-09-09T09:40:52.581Z,98585.16
2022-09-09T09:43:35.501Z,98578.19
2022-09-09T09:46:17.527Z,98582.03
2022-09-09T09:48:47.311Z,98586.94
2022-09-09T09:51:17.106Z,98584.63
2022-09-09T09:53:44.095Z,98591.84
2022-09-09T09:56:12.533Z,98593.34
2022-09-09T09:58:59.834Z,98598.03
2022-09-09T10:01:36.935Z,98599.09
2022-09-09T10:04:19.646Z,98606.53
2022-09-09T10:06:46.617Z,98610.19
2022-09-09T10:09:33.905Z,98614.22
2022-09-09T10:12:34.073Z,98621.22
2022-09-09T10:15:19.856Z,98628.88
2022-09-09T10:18:10.700Z,98631.84
2022-09-09T10:20:52.187Z,98616.19
2022-09-09T10:23:26.377Z,98621.72
2022-09-09T10:26:22.951Z,98622.16
2022-09-09T10:29:07.794Z,98619.22
2022-09-09T10:31:42.118Z,98613.72
2022-09-09T10:34:36.380Z,98613.94
2022-09-09T10:37:05.368Z,98614.81
2022-09-09T10:39:42.150Z,98611.00
2022-09-09T10:42:13.681Z,98616.53
2022-09-09T10:44:43.315Z,98607.84
2022-09-09T10:47:27.863Z,98606.13
2022-09-09T10:50:17.140Z,98609.97
2022-09-09T10:53:21.677Z,98615.22
2022-09-09T10:56:17.507Z,98602.94
2022-09-09T10:58:44.987Z,98593.63
2022-09-09T11:01:21.943Z,98602.31
2022-09-09T11:03:53.543Z,98591.91
2022-09-09T11:06:21.364Z,98603.75
2022-09-09T11:08:53.742Z,98601.03
2022-09-09T11:11:28.799Z,98605.06
2022-09-09T11:14:02.995Z,98608.66
2022-09-09T11:16:39.584Z,98599.53
2022-09-09T11:19:14.401Z,98603.31
2022-09-09T11:21:48.154Z,98604.78
2022-09-09T11:24:44.645Z,98608.16
2022-09-09T11:27:26.706Z,98607.47
2022-09-09T11:29:59.546Z,98612.34
2022-09-09T11:32:48.614Z,98614.22
2022-09-09T11:35:31.559Z,98615.25
2022-09-09T11:38:28.135Z,98611.00
2022-09-09T11:41:03.600Z,98617.72
2022-09-09T11:43:39.834Z,98616.66
2022-09-09T11:46:06.795Z,98616.84
2022-09-09T11:48:34.790Z,98606.97
2022-09-09T11:51:14.657Z,98610.09
2022-09-09T11:53:53.949Z,98612.63
2022-09-09T11:56:27.822Z,98618.34
2022-09-09T11:58:56.945Z,98614.91
2022-09-09T12:01:28.520Z,98608.09
2022-09-09T12:04:02.672Z,98609.78
2022-09-09T12:06:33.056Z,98613.34
2022-09-09T12:09:13.855Z,98614.53
2022-09-09T12:11:40.649Z,98616.41
2022-09-09T12:14:23.845Z,98618.66
2022-09-09T12:16:51.856Z,98616.91
2022-09-09T12:19:26.254Z,98623.66
2022-09-09T12:22:05.869Z,98624.91
2022-09-09T12:24:53.121Z,98622.53
2022-09-09T12:27:29.794Z,98620.78
2022-09-09T12:30:03.379Z,98621.38
2022-09-09T12:32:31.123Z,98620.66
2022-09-09T12:35:01.315Z,98615.28
2022-09-09T12:37:30.305Z,98614.38
2022-09-09T12:39:59.461Z,98606.22
2022-09-09T12:42:27.150Z,98606.59
2022-09-09T12:44:57.028Z,98612.44
2022-09-09T12:47:54.752Z,98609.84
2022-09-09T12:50:37.934Z,98605.31
2022-09-09T12:53:26.475Z,98592.72
2022-09-09T12:55:57.258Z,98592.63
2022-09-09T12:58:24.048Z,98592.78
2022-09-09T13:00:57.034Z,98593.16
2022-09-09T13:03:24.293Z,98597.25
2022-09-09T13:05:51.314Z,98591.47
2022-09-09T13:08:21.565Z,98584.53
2022-09-09T13:11:04.861Z,98592.84
2022-09-09T13:13:33.905Z,98577.69
2022-09-09T13:16:01.740Z,98581.28
2022-09-09T13:18:37.172Z,98574.22
2022-09-09T13:21:04.320Z,98568.47
2022-09-09T13:23:33.302Z,98562.69
2022-09-09T13:26:01.744Z,98575.44
2022-09-09T13:28:34.115Z,98567.97
2022-09-09T13:31:39.676Z,98564.03
2022-09-09T13:34:33.866Z,98557.66
2022-09-09T13:37:06.923Z,98559.31
2022-09-09T13:39:37.826Z,98562.31
2022-09-09T13:42:05.030Z,98559.56
2022-09-09T13:44:36.578Z,98554.41
2022-09-09T13:47:10.359Z,98549.56
2022-09-09T13:49:37.635Z,98543.31
2022-09-09T13:52:12.979Z,98550.38
2022-09-09T13:54:40.405Z,98540.53
2022-09-09T13:57:16.269Z,98534.50
2022-09-09T14:00:03.748Z,98530.44
2022-09-09T14:02:32.231Z,98532.72
2022-09-09T14:04:59.123Z,98534.16
2022-09-09T14:07:26.348Z,98535.03
2022-09-09T14:09:53.545Z,98541.41
2022-09-09T14:12:21.188Z,98532.72
2022-09-09T14:14:48.105Z,98535.03
2022-09-09T14:17:15.855Z,98530.31
2022-09-09T14:19:43.619Z,98524.78
2022-09-09T14:22:10.512Z,98522.03
2022-09-09T14:24:37.773Z,98523.09
2022-09-09T14:27:04.595Z,98533.94
2022-09-09T14:29:31.424Z,98537.31
2022-09-09T14:31:58.496Z,98535.41
2022-09-09T14:34:25.368Z,98535.16
2022-09-09T14:36:52.540Z,98532.63
2022-09-09T14:39:19.577Z,98528.53
2022-09-09T14:41:46.836Z,98525.75
2022-09-09T14:44:13.705Z,98527.94
2022-09-09T14:46:40.772Z,98519.63
2022-09-09T14:49:07.683Z,98525.16
2022-09-09T14:51:35.225Z,98538.75
2022-09-09T14:54:03.099Z,98533.47
2022-09-09T14:56:31.556Z,98535.63
2022-09-09T14:59:01.714Z,98533.69
2022-09-09T15:01:29.129Z,98531.16
2022-09-09T15:04:00.610Z,98523.72
2022-09-09T15:06:30.146Z,98525.25
2022-09-09T15:09:00.413Z,98523.31
2022-09-09T15:11:28.856Z,98522.72
2022-09-09T15:13:55.800Z,98531.25
2022-09-09T15:16:24.791Z,98531.25
2022-09-09T15:18:53.153Z,98540.91
2022-09-09T15:21:21.365Z,98540.03
2022-09-09T15:23:52.177Z,98539.44
2022-09-09T15:26:19.246Z,98540.53
2022-09-09T15:28:48.270Z,98545.44
2022-09-09T15:31:20.203Z,98540.38
2022-09-09T15:34:06.466Z,98545.06
2022-09-09T15:36:38.219Z,98552.78
2022-09-09T15:39:06.575Z,98540.22
2022-09-09T15:41:33.680Z,98533.25
2022-09-09T15:44:01.548Z,98524.34
2022-09-09T15:46:33.378Z,98528.41
2022-09-09T15:49:26.368Z,98529.47
2022-09-09T15:52:04.439Z,98528.28
2022-09-09T15:54:36.249Z,98530.44
2022-09-09T15:57:05.055Z,98524.78
2022-09-09T15:59:32.284Z,98524.78
2022-09-09T16:02:01.065Z,98520.53
2022-09-09T16:04:30.090Z,98522.69
2022-09-09T16:07:01.517Z,98520.38
2022-09-09T16:09:28.501Z,98513.63
2022-09-09T16:11:59.977Z,98509.63
2022-09-09T16:14:26.989Z,98512.00
2022-09-09T16:16:53.993Z,98511.19
2022-09-09T16:19:21.186Z,98510.16
2022-09-09T16:21:49.339Z,98507.03
2022-09-09T16:24:19.209Z,98518.53
2022-09-09T16:26:48.116Z,98512.63
2022-09-09T16:29:15.541Z,98509.50
2022-09-09T16:31:42.565Z,98512.72
2022-09-09T16:34:10.359Z,98505.16
2022-09-09T16:36:40.100Z,98508.59
2022-09-09T16:39:15.376Z,98509.06
2022-09-09T16:41:43.024Z,98502.75
2022-09-09T16:44:10.769Z,98500.22
2022-09-09T16:46:42.567Z,98500.88
2022-09-09T16:49:12.661Z,98497.72
2022-09-09T16:51:50.057Z,98504.16
2022-09-09T16:54:18.343Z,98504.84
2022-09-09T16:56:46.663Z,98506.41
2022-09-09T16:59:16.177Z,98514.53
2022-09-09T17:01:44.328Z,98506.91
2022-09-09T17:04:14.768Z,98513.13
2022-09-09T17:06:42.473Z,98514.66
2022-09-09T17:09:10.960Z,98511.97
2022-09-09T17:11:40.837Z,98505.19
2022-09-09T17:14:09.020Z,98510.53
2022-09-09T17:16:36.403Z,98512.09
2022-09-09T17:19:04.627Z,98517.41
2022-09-09T17:21:32.070Z,98516.16
2022-09-09T17:23:59.344Z,98517.91
2022-09-09T17:26:28.457Z,98519.44
2022-09-09T17:28:59.491Z,98523.09
2022-09-09T17:31:27.351Z,98522.09
2022-09-09T17:33:54.292Z,98517.44
2022-09-09T17:36:26.764Z,98513.66
2022-09-09T17:38:53.925Z,98516.44
2022-09-09T17:41:31.921Z,98518.81
2022-09-09T17:43:59.452Z,98518.25
2022-09-09T17:46:28.713Z,98515.31
2022-09-09T17:49:00.378Z,98511.28
2022-09-09T17:51:30.529Z,98509.63
2022-09-09T17:53:59.906Z,98516.66
2022-09-09T17:56:29.268Z,98520.50
2022-09-09T17:58:56.370Z,98523.06
2022-09-09T18:01:24.823Z,98528.41
2022-09-09T18:03:52.256Z,98531.19
2022-09-09T18:06:24.811Z,98530.78
2022-09-09T18:08:55.997Z,98535.03
2022-09-09T18:11:25.841Z,98532.06
2022-09-09T18:13:54.933Z,98540.59
2022-09-09T18:16:22.499Z,98537.00
2022-09-09T18:18:50.378Z,98535.06
2022-09-09T18:21:18.915Z,98545.69
2022-09-09T18:23:52.160Z,98539.34
2022-09-09T18:26:22.927Z,98553.75
2022-09-09T18:28:51.199Z,98551.22
2022-09-09T18:31:19.163Z,98547.63
2022-09-09T18:33:47.541Z,98551.66
2022-09-09T18:36:16.144Z,98548.28
2022-09-09T18:38:43.116Z,98549.38
2022-09-09T18:41:13.382Z,98551.25
2022-09-09T18:43:40.246Z,98561.00
2022-09-09T18:46:07.124Z,98565.25
2022-09-09T18:48:34.268Z,98563.97
2022-09-09T18:51:09.346Z,98554.88
2022-09-09T18:53:37.043Z,98551.66
2022-09-09T18:56:05.846Z,98550.59
2022-09-09T18:58:33.745Z,98553.97
2022-09-09T19:01:01.649Z,98551.44
2022-09-09T19:03:29.638Z,98553.13
2022-09-09T19:06:08.992Z,98551.88
2022-09-09T19:08:40.514Z,98551.00
2022-09-09T19:11:09.944Z,98544.03
2022-09-09T19:13:37.134Z,98549.13
2022-09-09T19:16:11.727Z,98553.31
2022-09-09T19:18:39.646Z,98547.38
2022-09-09T19:21:13.539Z,98556.25
2022-09-09T19:23:41.401Z,98550.34
2022-09-09T19:26:08.530Z,98547.16
2022-09-09T19:28:35.698Z,98546.09
2022-09-09T19:31:07.526Z,98552.00
2022-09-09T19:33:34.566Z,98554.72
2022-09-09T19:36:02.778Z,98561.47
2022-09-09T19:38:30.605Z,98560.81
2022-09-09T19:41:02.919Z,98565.25
2022-09-09T19:43:30.000Z,98568.63
2022-09-09T19:45:58.625Z,98571.56
2022-09-09T19:48:26.985Z,98572.59
2022-09-09T19:50:54.947Z,98567.28
2022-09-09T19:53:21.876Z,98567.94
2022-09-09T19:55:51.867Z,98574.88
2022-09-09T19:58:18.952Z,98567.03
2022-09-09T20:00:46.064Z,98571.25
2022-09-09T20:03:19.234Z,98567.44
2022-09-09T20:05:49.309Z,98562.34
2022-09-09T20:08:16.168Z,98558.09
2022-09-09T20:10:51.520Z,98562.31
2022-09-09T20:13:18.721Z,98552.94
2022-09-09T20:15:45.580Z,98554.22
2022-09-09T20:18:12.381Z,98560.97
2022-09-09T20:20:42.951Z,98558.78
2022-09-09T20:23:09.777Z,98553.72
2022-09-09T20:25:38.125Z,98551.56
2022-09-09T20:28:05.152Z,98552.81
2022-09-09T20:30:38.160Z,98554.06
2022-09-09T20:33:05.092Z,98551.72
2022-09-09T20:35:33.163Z,98555.25
2022-09-09T20:38:00.872Z,98558.19
2022-09-09T20:40:31.549Z,98558.63
2022-09-09T20:43:00.426Z,98555.22
2022-09-09T20:45:27.227Z,98556.03
2022-09-09T20:47:57.112Z,98553.47
2022-09-09T20:50:24.215Z,98558.72
2022-09-09T20:52:52.403Z,98556.78
2022-09-09T20:55:19.267Z,98547.69
2022-09-09T20:57:46.330Z,98552.50
2022-09-09T21:00:14.883Z,98550.84
2022-09-09T21:02:41.776Z,98555.00
2022-09-09T21:05:09.043Z,98546.91
2022-09-09T21:07:35.845Z,98546.72
2022-09-09T21:10:02.764Z,98552.81
2022-09-09T21:12:30.361Z,98550.47
2022-09-09T21:14:57.129Z,98544.31
2022-09-09T21:17:24.021Z,98546.75
2022-09-09T21:19:51.051Z,98544.84
2022-09-09T21:22:18.099Z,98552.41
2022-09-09T21:24:44.860Z,98549.41
2022-09-09T21:27:12.283Z,98557.22
2022-09-09T21:29:39.093Z,98552.94
2022-09-09T21:32:05.886Z,98551.47
2022-09-09T21:34:34.826Z,98561.44
2022-09-09T21:37:02.280Z,98558.88
2022-09-09T21:39:29.169Z,98562.13
2022-09-09T21:41:56.936Z,98561.94
2022-09-09T21:44:23.852Z,98568.00
2022-09-09T21:46:50.687Z,98564.16
2022-09-09T21:49:17.740Z,98566.72
2022-09-09T21:51:45.810Z,98563.88
2022-09-09T21:54:12.641Z,98564.72
2022-09-09T21:56:39.696Z,98575.69
2022-09-09T21:59:06.583Z,98586.66
2022-09-09T22:01:33.720Z,98583.84
2022-09-09T22:04:01.360Z,98595.44
2022-09-09T22:06:28.253Z,98591.63
2022-09-09T22:08:57.222Z,98591.16
2022-09-09T22:11:25.354Z,98591.91
2022-09-09T22:13:53.377Z,98592.97
2022-09-09T22:16:21.128Z,98592.19
2022-09-09T22:18:53.067Z,98594.09
2022-09-09T22:21:19.947Z,98597.00
2022-09-09T22:23:53.100Z,98602.03
2022-09-09T22:26:20.247Z,98608.34
2022-09-09T22:28:47.371Z,98611.78
2022-09-09T22:31:14.359Z,98606.50
2022-09-09T22:33:41.470Z,98614.44
2022-09-09T22:36:08.523Z,98618.00
2022-09-09T22:38:36.527Z,98621.78
2022-09-09T22:41:04.302Z,98616.50
2022-09-09T22:43:33.001Z,98618.13
2022-09-09T22:46:00.474Z,98616.22
2022-09-09T22:48:28.671Z,98620.19
2022-09-09T22:51:01.670Z,98620.38
2022-09-09T22:53:28.775Z,98619.53
2022-09-09T22:56:03.165Z,98618.69
2022-09-09T22:58:31.755Z,98611.06
2022-09-09T23:00:59.022Z,98612.25
2022-09-09T23:03:26.864Z,98594.03
2022-09-09T23:05:56.542Z,98568.34
2022-09-09T23:08:33.878Z,98552.94
2022-09-09T23:11:01.186Z,98537.09
2022-09-09T23:13:31.054Z,98510.06
2022-09-09T23:15:58.004Z,98506.69
2022-09-09T23:18:26.874Z,98503.94
2022-09-09T23:21:00.532Z,98497.78
2022-09-09T23:23:30.566Z,98502.97
2022-09-09T23:25:57.340Z,98513.09
2022-09-09T23:28:24.176Z,98514.13
2022-09-09T23:30:51.244Z,98513.66
2022-09-09T23:33:18.128Z,98522.84
2022-09-09T23:35:44.928Z,98531.53
2022-09-09T23:38:12.020Z,98541.41
2022-09-09T23:40:39.912Z,98539.63
2022-09-09T23:43:07.116Z,98541.03
2022-09-09T23:45:34.191Z,98542.69
2022-09-09T23:48:00.963Z,98540.44
2022-09-09T23:50:27.841Z,98534.78
2022-09-09T23:52:54.899Z,98540.63
2022-09-09T23:55:23.851Z,98547.22
2022-09-09T23:57:50.680Z,98559.41
